Aviation Digital Data Service (ADDS)

Output produced by METARs form (0343 UTC 19 July 2018)
found at http://www.aviationweather.gov/adds/metars/
 
KRNH 190335Z AUTO 00000KT 10SM CLR 18/15 A3000 RMK AO2 T01790145
KMSP 190253Z 13008KT 10SM FEW100 BKN250 24/16 A2998 RMK AO2 SLP146 T02390156 55003